sensor_id;sensor_type;location;lat;lon;timestamp;pressure;altitude;pressure_sealevel;temperature;humidity
38400;BME280;24180;42.676;23.320;2023-04-26T00:02:25;93756.91;;;8.88;100.00
38400;BME280;24180;42.676;23.320;2023-04-26T00:04:54;93729.75;;;8.68;100.00
38400;BME280;24180;42.676;23.320;2023-04-26T00:07:23;93767.91;;;8.90;100.00
38400;BME280;24180;42.676;23.320;2023-04-26T00:09:52;93771.47;;;8.97;100.00
38400;BME280;24180;42.676;23.320;2023-04-26T00:12:17;93742.34;;;8.71;100.00
38400;BME280;24180;42.676;23.320;2023-04-26T00:14:43;93769.00;;;8.79;100.00
38400;BME280;24180;42.676;23.320;2023-04-26T00:17:09;93754.59;;;8.69;100.00
38400;BME280;24180;42.676;23.320;2023-04-26T00:19:34;93721.00;;;8.53;100.00
38400;BME280;24180;42.676;23.320;2023-04-26T00:21:59;93760.75;;;8.76;100.00
38400;BME280;24180;42.676;23.320;2023-04-26T00:24:25;93748.47;;;8.62;100.00
38400;BME280;24180;42.676;23.320;2023-04-26T00:26:54;93729.69;;;8.52;100.00
38400;BME280;24180;42.676;23.320;2023-04-26T00:29:20;93727.78;;;8.54;100.00
38400;BME280;24180;42.676;23.320;2023-04-26T00:31:46;93730.66;;;8.51;100.00
38400;BME280;24180;42.676;23.320;2023-04-26T00:34:11;93740.41;;;8.65;100.00
38400;BME280;24180;42.676;23.320;2023-04-26T00:36:36;93741.03;;;8.67;100.00
38400;BME280;24180;42.676;23.320;2023-04-26T00:39:02;93718.09;;;8.56;100.00
38400;BME280;24180;42.676;23.320;2023-04-26T00:41:27;93728.44;;;8.64;100.00
38400;BME280;24180;42.676;23.320;2023-04-26T00:43:53;93736.88;;;8.66;100.00
38400;BME280;24180;42.676;23.320;2023-04-26T00:46:19;93737.47;;;8.60;100.00
38400;BME280;24180;42.676;23.320;2023-04-26T00:48:45;93716.91;;;8.34;100.00
38400;BME280;24180;42.676;23.320;2023-04-26T00:51:12;93742.25;;;8.46;100.00
38400;BME280;24180;42.676;23.320;2023-04-26T00:53:38;93716.59;;;8.37;100.00
38400;BME280;24180;42.676;23.320;2023-04-26T00:56:05;93736.63;;;8.51;100.00
38400;BME280;24180;42.676;23.320;2023-04-26T00:58:32;93742.91;;;8.49;100.00
38400;BME280;24180;42.676;23.320;2023-04-26T01:00:57;93742.56;;;8.43;100.00
38400;BME280;24180;42.676;23.320;2023-04-26T01:03:23;93743.38;;;8.44;100.00
38400;BME280;24180;42.676;23.320;2023-04-26T01:05:49;93741.47;;;8.46;100.00
38400;BME280;24180;42.676;23.320;2023-04-26T01:08:14;93740.88;;;8.26;100.00
38400;BME280;24180;42.676;23.320;2023-04-26T01:10:46;93732.84;;;8.29;100.00
38400;BME280;24180;42.676;23.320;2023-04-26T01:13:12;93749.19;;;8.38;100.00
38400;BME280;24180;42.676;23.320;2023-04-26T01:15:45;93729.53;;;8.19;100.00
38400;BME280;24180;42.676;23.320;2023-04-26T01:18:11;93754.94;;;8.32;100.00
38400;BME280;24180;42.676;23.320;2023-04-26T01:20:38;93740.53;;;8.21;100.00
38400;BME280;24180;42.676;23.320;2023-04-26T01:23:04;93730.31;;;8.12;100.00
38400;BME280;24180;42.676;23.320;2023-04-26T01:25:30;93725.16;;;8.12;100.00
38400;BME280;24180;42.676;23.320;2023-04-26T01:27:56;93700.91;;;7.96;100.00
38400;BME280;24180;42.676;23.320;2023-04-26T01:30:21;93723.53;;;8.11;100.00
38400;BME280;24180;42.676;23.320;2023-04-26T01:32:47;93712.63;;;7.91;100.00
38400;BME280;24180;42.676;23.320;2023-04-26T01:35:12;93713.44;;;7.91;100.00
38400;BME280;24180;42.676;23.320;2023-04-26T01:37:37;93721.41;;;7.98;100.00
38400;BME280;24180;42.676;23.320;2023-04-26T01:40:03;93740.63;;;8.12;100.00
38400;BME280;24180;42.676;23.320;2023-04-26T01:42:32;93708.34;;;7.99;100.00
38400;BME280;24180;42.676;23.320;2023-04-26T01:44:57;93744.31;;;8.09;100.00
38400;BME280;24180;42.676;23.320;2023-04-26T01:47:22;93741.03;;;7.99;100.00
38400;BME280;24180;42.676;23.320;2023-04-26T01:49:50;93720.03;;;7.86;100.00
38400;BME280;24180;42.676;23.320;2023-04-26T01:52:15;93734.41;;;7.96;100.00
38400;BME280;24180;42.676;23.320;2023-04-26T01:54:41;93743.00;;;8.05;100.00
38400;BME280;24180;42.676;23.320;2023-04-26T01:57:06;93737.53;;;8.08;100.00
38400;BME280;24180;42.676;23.320;2023-04-26T01:59:32;93707.97;;;7.94;100.00
38400;BME280;24180;42.676;23.320;2023-04-26T02:01:57;93702.78;;;7.86;100.00
38400;BME280;24180;42.676;23.320;2023-04-26T02:04:23;93691.91;;;7.75;100.00
38400;BME280;24180;42.676;23.320;2023-04-26T02:06:48;93725.09;;;8.04;100.00
38400;BME280;24180;42.676;23.320;2023-04-26T02:09:14;93722.97;;;7.99;100.00
38400;BME280;24180;42.676;23.320;2023-04-26T02:11:40;93726.81;;;7.95;100.00
38400;BME280;24180;42.676;23.320;2023-04-26T02:14:05;93730.56;;;8.00;100.00
38400;BME280;24180;42.676;23.320;2023-04-26T02:16:31;93673.69;;;7.68;100.00
38400;BME280;24180;42.676;23.320;2023-04-26T02:18:57;93696.84;;;7.86;100.00
38400;BME280;24180;42.676;23.320;2023-04-26T02:21:23;93703.81;;;7.93;100.00
38400;BME280;24180;42.676;23.320;2023-04-26T02:23:48;93691.28;;;7.73;100.00
38400;BME280;24180;42.676;23.320;2023-04-26T02:26:14;93693.13;;;7.63;100.00
38400;BME280;24180;42.676;23.320;2023-04-26T02:28:39;93721.81;;;7.85;100.00
38400;BME280;24180;42.676;23.320;2023-04-26T02:31:06;93705.41;;;7.94;100.00
38400;BME280;24180;42.676;23.320;2023-04-26T02:33:32;93721.06;;;8.01;100.00
38400;BME280;24180;42.676;23.320;2023-04-26T02:35:57;93721.75;;;8.11;100.00
38400;BME280;24180;42.676;23.320;2023-04-26T02:38:23;93724.16;;;8.05;100.00
38400;BME280;24180;42.676;23.320;2023-04-26T02:40:57;93716.31;;;8.14;100.00
38400;BME280;24180;42.676;23.320;2023-04-26T02:43:22;93709.22;;;8.16;100.00
38400;BME280;24180;42.676;23.320;2023-04-26T02:45:48;93695.38;;;8.17;100.00
38400;BME280;24180;42.676;23.320;2023-04-26T02:48:13;93715.16;;;8.34;100.00
38400;BME280;24180;42.676;23.320;2023-04-26T02:50:38;93683.31;;;8.26;100.00
38400;BME280;24180;42.676;23.320;2023-04-26T02:53:04;93700.66;;;8.41;100.00
38400;BME280;24180;42.676;23.320;2023-04-26T02:55:29;93710.03;;;8.51;100.00
38400;BME280;24180;42.676;23.320;2023-04-26T02:57:55;93697.63;;;8.46;100.00
38400;BME280;24180;42.676;23.320;2023-04-26T03:00:20;93695.34;;;8.51;100.00
38400;BME280;24180;42.676;23.320;2023-04-26T03:02:46;93690.97;;;8.43;100.00
38400;BME280;24180;42.676;23.320;2023-04-26T03:05:12;93672.59;;;8.38;100.00
38400;BME280;24180;42.676;23.320;2023-04-26T03:07:37;93702.59;;;8.48;100.00
38400;BME280;24180;42.676;23.320;2023-04-26T03:10:03;93701.19;;;8.53;100.00
38400;BME280;24180;42.676;23.320;2023-04-26T03:12:29;93696.84;;;8.54;100.00
38400;BME280;24180;42.676;23.320;2023-04-26T03:14:55;93701.81;;;8.55;100.00
38400;BME280;24180;42.676;23.320;2023-04-26T03:17:20;93696.50;;;8.57;100.00
38400;BME280;24180;42.676;23.320;2023-04-26T03:19:46;93674.56;;;8.53;100.00
38400;BME280;24180;42.676;23.320;2023-04-26T03:22:11;93670.72;;;8.57;100.00
38400;BME280;24180;42.676;23.320;2023-04-26T03:24:43;93693.28;;;8.63;100.00
38400;BME280;24180;42.676;23.320;2023-04-26T03:27:08;93668.91;;;8.49;100.00
38400;BME280;24180;42.676;23.320;2023-04-26T03:29:34;93688.47;;;8.68;100.00
38400;BME280;24180;42.676;23.320;2023-04-26T03:32:00;93705.56;;;8.61;100.00
38400;BME280;24180;42.676;23.320;2023-04-26T03:34:25;93676.47;;;8.51;100.00
38400;BME280;24180;42.676;23.320;2023-04-26T03:36:51;93710.25;;;8.65;100.00
38400;BME280;24180;42.676;23.320;2023-04-26T03:39:17;93682.31;;;8.53;100.00
38400;BME280;24180;42.676;23.320;2023-04-26T03:41:42;93702.31;;;8.67;100.00
38400;BME280;24180;42.676;23.320;2023-04-26T03:44:07;93713.16;;;8.62;100.00
38400;BME280;24180;42.676;23.320;2023-04-26T03:46:33;93708.00;;;8.62;100.00
38400;BME280;24180;42.676;23.320;2023-04-26T03:48:58;93697.78;;;8.53;100.00
38400;BME280;24180;42.676;23.320;2023-04-26T03:51:24;93719.94;;;8.79;100.00
38400;BME280;24180;42.676;23.320;2023-04-26T03:53:49;93722.22;;;8.82;100.00
38400;BME280;24180;42.676;23.320;2023-04-26T03:56:15;93733.03;;;8.86;100.00
38400;BME280;24180;42.676;23.320;2023-04-26T03:58:41;93732.88;;;8.96;100.00
38400;BME280;24180;42.676;23.320;2023-04-26T04:01:07;93708.19;;;8.85;100.00
38400;BME280;24180;42.676;23.320;2023-04-26T04:03:32;93729.00;;;8.91;100.00
38400;BME280;24180;42.676;23.320;2023-04-26T04:05:58;93742.41;;;8.95;100.00
38400;BME280;24180;42.676;23.320;2023-04-26T04:08:23;93706.41;;;8.77;100.00
38400;BME280;24180;42.676;23.320;2023-04-26T04:10:49;93736.94;;;8.98;100.00
38400;BME280;24180;42.676;23.320;2023-04-26T04:13:14;93751.13;;;8.94;100.00
38400;BME280;24180;42.676;23.320;2023-04-26T04:15:40;93735.78;;;8.92;100.00
38400;BME280;24180;42.676;23.320;2023-04-26T04:18:05;93726.41;;;8.83;100.00
38400;BME280;24180;42.676;23.320;2023-04-26T04:20:31;93755.34;;;9.03;100.00
38400;BME280;24180;42.676;23.320;2023-04-26T04:22:56;93759.06;;;9.01;100.00
38400;BME280;24180;42.676;23.320;2023-04-26T04:25:26;93717.53;;;8.70;100.00
38400;BME280;24180;42.676;23.320;2023-04-26T04:27:51;93725.44;;;8.84;100.00
38400;BME280;24180;42.676;23.320;2023-04-26T04:30:17;93757.88;;;8.95;100.00
38400;BME280;24180;42.676;23.320;2023-04-26T04:32:43;93740.94;;;8.84;100.00
38400;BME280;24180;42.676;23.320;2023-04-26T04:35:09;93750.16;;;9.03;100.00
38400;BME280;24180;42.676;23.320;2023-04-26T04:37:34;93744.19;;;9.11;100.00
38400;BME280;24180;42.676;23.320;2023-04-26T04:40:00;93735.00;;;9.00;100.00
38400;BME280;24180;42.676;23.320;2023-04-26T04:42:26;93756.16;;;9.12;100.00
38400;BME280;24180;42.676;23.320;2023-04-26T04:44:53;93732.78;;;9.13;100.00
38400;BME280;24180;42.676;23.320;2023-04-26T04:47:18;93741.34;;;9.22;100.00
38400;BME280;24180;42.676;23.320;2023-04-26T04:49:44;93743.25;;;9.20;100.00
38400;BME280;24180;42.676;23.320;2023-04-26T04:52:09;93779.44;;;9.36;100.00
38400;BME280;24180;42.676;23.320;2023-04-26T04:54:35;93781.88;;;9.37;100.00
38400;BME280;24180;42.676;23.320;2023-04-26T04:57:00;93756.97;;;9.20;100.00
38400;BME280;24180;42.676;23.320;2023-04-26T04:59:26;93780.38;;;9.27;100.00
38400;BME280;24180;42.676;23.320;2023-04-26T05:01:51;93765.72;;;9.35;100.00
38400;BME280;24180;42.676;23.320;2023-04-26T05:04:17;93779.31;;;9.62;100.00
38400;BME280;24180;42.676;23.320;2023-04-26T05:06:42;93775.09;;;9.69;100.00
38400;BME280;24180;42.676;23.320;2023-04-26T05:09:08;93777.69;;;9.85;100.00
38400;BME280;24180;42.676;23.320;2023-04-26T05:11:34;93777.34;;;9.88;100.00
38400;BME280;24180;42.676;23.320;2023-04-26T05:13:59;93776.41;;;9.73;100.00
38400;BME280;24180;42.676;23.320;2023-04-26T05:16:28;93781.22;;;9.84;100.00
38400;BME280;24180;42.676;23.320;2023-04-26T05:18:53;93786.06;;;9.95;100.00
38400;BME280;24180;42.676;23.320;2023-04-26T05:21:20;93788.66;;;9.95;100.00
38400;BME280;24180;42.676;23.320;2023-04-26T05:23:45;93766.88;;;9.81;100.00
38400;BME280;24180;42.676;23.320;2023-04-26T05:26:17;93776.41;;;9.81;100.00
38400;BME280;24180;42.676;23.320;2023-04-26T05:28:42;93771.22;;;9.97;100.00
38400;BME280;24180;42.676;23.320;2023-04-26T05:31:08;93780.88;;;10.19;100.00
38400;BME280;24180;42.676;23.320;2023-04-26T05:33:34;93775.53;;;10.37;100.00
38400;BME280;24180;42.676;23.320;2023-04-26T05:36:00;93784.19;;;10.60;100.00
38400;BME280;24180;42.676;23.320;2023-04-26T05:38:25;93796.84;;;10.94;100.00
38400;BME280;24180;42.676;23.320;2023-04-26T05:40:51;93811.75;;;11.23;100.00
38400;BME280;24180;42.676;23.320;2023-04-26T05:43:16;93803.81;;;11.24;100.00
38400;BME280;24180;42.676;23.320;2023-04-26T05:45:55;93827.72;;;11.35;100.00
38400;BME280;24180;42.676;23.320;2023-04-26T05:48:22;93830.84;;;11.53;100.00
38400;BME280;24180;42.676;23.320;2023-04-26T05:50:48;93813.47;;;11.61;100.00
38400;BME280;24180;42.676;23.320;2023-04-26T05:53:14;93794.03;;;11.57;100.00
38400;BME280;24180;42.676;23.320;2023-04-26T05:55:42;93830.75;;;11.69;100.00
38400;BME280;24180;42.676;23.320;2023-04-26T05:58:08;93825.53;;;11.77;100.00
38400;BME280;24180;42.676;23.320;2023-04-26T06:00:34;93838.78;;;11.59;100.00
38400;BME280;24180;42.676;23.320;2023-04-26T06:03:00;93828.88;;;11.63;100.00
38400;BME280;24180;42.676;23.320;2023-04-26T06:05:25;93832.81;;;11.51;100.00
38400;BME280;24180;42.676;23.320;2023-04-26T06:07:52;93812.81;;;11.37;100.00
38400;BME280;24180;42.676;23.320;2023-04-26T06:10:17;93810.34;;;11.43;100.00
38400;BME280;24180;42.676;23.320;2023-04-26T06:12:43;93818.25;;;11.50;100.00
38400;BME280;24180;42.676;23.320;2023-04-26T06:15:09;93808.78;;;11.57;100.00
38400;BME280;24180;42.676;23.320;2023-04-26T06:17:35;93795.47;;;11.60;100.00
38400;BME280;24180;42.676;23.320;2023-04-26T06:20:00;93808.22;;;11.69;100.00
38400;BME280;24180;42.676;23.320;2023-04-26T06:22:26;93800.41;;;11.78;100.00
38400;BME280;24180;42.676;23.320;2023-04-26T06:24:51;93820.69;;;12.34;100.00
38400;BME280;24180;42.676;23.320;2023-04-26T06:27:17;93831.97;;;12.56;100.00
38400;BME280;24180;42.676;23.320;2023-04-26T06:29:42;93832.72;;;12.50;100.00
38400;BME280;24180;42.676;23.320;2023-04-26T06:32:09;93826.75;;;12.27;100.00
38400;BME280;24180;42.676;23.320;2023-04-26T06:34:34;93811.50;;;12.09;100.00
38400;BME280;24180;42.676;23.320;2023-04-26T06:37:01;93828.34;;;12.13;100.00
38400;BME280;24180;42.676;23.320;2023-04-26T06:39:26;93802.00;;;12.01;100.00
38400;BME280;24180;42.676;23.320;2023-04-26T06:41:52;93837.22;;;11.73;100.00
38400;BME280;24180;42.676;23.320;2023-04-26T06:44:17;93826.41;;;11.39;100.00
38400;BME280;24180;42.676;23.320;2023-04-26T06:46:42;93852.34;;;11.39;100.00
38400;BME280;24180;42.676;23.320;2023-04-26T06:49:08;93854.50;;;11.27;100.00
38400;BME280;24180;42.676;23.320;2023-04-26T06:51:35;93827.16;;;11.16;100.00
38400;BME280;24180;42.676;23.320;2023-04-26T06:54:01;93830.91;;;11.14;100.00
38400;BME280;24180;42.676;23.320;2023-04-26T06:56:26;93857.94;;;11.50;100.00
38400;BME280;24180;42.676;23.320;2023-04-26T07:01:23;93821.75;;;11.57;100.00
38400;BME280;24180;42.676;23.320;2023-04-26T07:03:48;93854.56;;;11.72;100.00
38400;BME280;24180;42.676;23.320;2023-04-26T07:06:14;93815.41;;;11.37;100.00
38400;BME280;24180;42.676;23.320;2023-04-26T07:08:39;93844.91;;;11.27;100.00
38400;BME280;24180;42.676;23.320;2023-04-26T07:11:11;93808.44;;;11.06;100.00
38400;BME280;24180;42.676;23.320;2023-04-26T07:13:37;93837.28;;;11.34;100.00
38400;BME280;24180;42.676;23.320;2023-04-26T07:16:03;93858.25;;;11.55;100.00
38400;BME280;24180;42.676;23.320;2023-04-26T07:18:29;93863.03;;;11.36;100.00
38400;BME280;24180;42.676;23.320;2023-04-26T07:20:54;93841.06;;;11.23;100.00
38400;BME280;24180;42.676;23.320;2023-04-26T07:23:19;93831.84;;;11.21;100.00
38400;BME280;24180;42.676;23.320;2023-04-26T07:25:45;93851.19;;;11.64;100.00
38400;BME280;24180;42.676;23.320;2023-04-26T07:28:10;93867.06;;;11.69;100.00
38400;BME280;24180;42.676;23.320;2023-04-26T07:30:36;93856.44;;;11.87;100.00
38400;BME280;24180;42.676;23.320;2023-04-26T07:33:01;93840.94;;;12.16;100.00
38400;BME280;24180;42.676;23.320;2023-04-26T07:35:27;93858.00;;;12.71;100.00
38400;BME280;24180;42.676;23.320;2023-04-26T07:37:52;93840.09;;;12.24;100.00
38400;BME280;24180;42.676;23.320;2023-04-26T07:40:18;93859.34;;;12.29;100.00
38400;BME280;24180;42.676;23.320;2023-04-26T07:42:44;93826.56;;;12.13;100.00
38400;BME280;24180;42.676;23.320;2023-04-26T07:45:10;93864.97;;;11.95;100.00
38400;BME280;24180;42.676;23.320;2023-04-26T07:47:35;93851.81;;;11.43;100.00
38400;BME280;24180;42.676;23.320;2023-04-26T07:50:01;93841.47;;;11.66;100.00
38400;BME280;24180;42.676;23.320;2023-04-26T07:52:26;93857.47;;;12.00;100.00
38400;BME280;24180;42.676;23.320;2023-04-26T07:54:52;93877.34;;;12.08;100.00
38400;BME280;24180;42.676;23.320;2023-04-26T07:57:17;93879.28;;;11.91;100.00
38400;BME280;24180;42.676;23.320;2023-04-26T07:59:42;93888.03;;;12.13;100.00
38400;BME280;24180;42.676;23.320;2023-04-26T08:02:08;93880.44;;;12.11;100.00
38400;BME280;24180;42.676;23.320;2023-04-26T08:04:33;93881.13;;;11.83;100.00
38400;BME280;24180;42.676;23.320;2023-04-26T08:06:59;93880.25;;;11.59;100.00
38400;BME280;24180;42.676;23.320;2023-04-26T08:09:28;93885.50;;;11.82;100.00
38400;BME280;24180;42.676;23.320;2023-04-26T08:11:55;93883.41;;;11.78;100.00
38400;BME280;24180;42.676;23.320;2023-04-26T08:14:20;93870.59;;;11.76;100.00
38400;BME280;24180;42.676;23.320;2023-04-26T08:16:46;93879.84;;;12.01;100.00
38400;BME280;24180;42.676;23.320;2023-04-26T08:19:11;93856.19;;;11.96;100.00
38400;BME280;24180;42.676;23.320;2023-04-26T08:21:37;93891.94;;;11.86;100.00
38400;BME280;24180;42.676;23.320;2023-04-26T08:24:02;93879.03;;;11.78;100.00
38400;BME280;24180;42.676;23.320;2023-04-26T08:26:28;93874.28;;;12.04;100.00
38400;BME280;24180;42.676;23.320;2023-04-26T08:28:53;93883.28;;;12.39;100.00
38400;BME280;24180;42.676;23.320;2023-04-26T08:31:18;93885.25;;;12.52;100.00
38400;BME280;24180;42.676;23.320;2023-04-26T08:33:44;93889.69;;;12.29;100.00
38400;BME280;24180;42.676;23.320;2023-04-26T08:36:09;93844.22;;;11.95;100.00
38400;BME280;24180;42.676;23.320;2023-04-26T08:38:35;93845.75;;;12.04;100.00
38400;BME280;24180;42.676;23.320;2023-04-26T08:41:01;93867.78;;;12.31;100.00
38400;BME280;24180;42.676;23.320;2023-04-26T08:43:28;93869.91;;;12.28;100.00
38400;BME280;24180;42.676;23.320;2023-04-26T08:45:54;93884.41;;;12.59;100.00
38400;BME280;24180;42.676;23.320;2023-04-26T08:48:22;93875.28;;;12.41;100.00
38400;BME280;24180;42.676;23.320;2023-04-26T08:50:48;93857.63;;;12.59;100.00
38400;BME280;24180;42.676;23.320;2023-04-26T08:53:15;93887.25;;;12.64;100.00
38400;BME280;24180;42.676;23.320;2023-04-26T08:55:50;93897.09;;;12.69;100.00
38400;BME280;24180;42.676;23.320;2023-04-26T08:58:18;93857.66;;;12.36;100.00
38400;BME280;24180;42.676;23.320;2023-04-26T09:00:45;93874.28;;;13.08;100.00
38400;BME280;24180;42.676;23.320;2023-04-26T09:03:11;93852.59;;;13.01;100.00
38400;BME280;24180;42.676;23.320;2023-04-26T09:05:39;93856.38;;;12.99;100.00
38400;BME280;24180;42.676;23.320;2023-04-26T09:08:08;93886.41;;;13.31;100.00
38400;BME280;24180;42.676;23.320;2023-04-26T09:10:34;93875.47;;;13.21;100.00
38400;BME280;24180;42.676;23.320;2023-04-26T09:13:00;93893.16;;;13.10;100.00
38400;BME280;24180;42.676;23.320;2023-04-26T09:15:26;93893.66;;;12.91;100.00
38400;BME280;24180;42.676;23.320;2023-04-26T09:17:52;93899.66;;;12.92;100.00
38400;BME280;24180;42.676;23.320;2023-04-26T09:20:28;93893.28;;;12.94;100.00
38400;BME280;24180;42.676;23.320;2023-04-26T09:23:06;93858.00;;;13.15;100.00
38400;BME280;24180;42.676;23.320;2023-04-26T09:25:32;93860.78;;;13.13;100.00
38400;BME280;24180;42.676;23.320;2023-04-26T09:27:58;93877.88;;;13.37;100.00
38400;BME280;24180;42.676;23.320;2023-04-26T09:30:24;93875.75;;;13.26;100.00
38400;BME280;24180;42.676;23.320;2023-04-26T09:38:06;93888.88;;;13.89;100.00
38400;BME280;24180;42.676;23.320;2023-04-26T09:43:06;93879.56;;;13.59;100.00
38400;BME280;24180;42.676;23.320;2023-04-26T09:45:44;93886.25;;;13.68;100.00
38400;BME280;24180;42.676;23.320;2023-04-26T09:50:38;93864.22;;;13.85;100.00
38400;BME280;24180;42.676;23.320;2023-04-26T09:53:04;93874.25;;;13.88;100.00
38400;BME280;24180;42.676;23.320;2023-04-26T09:55:30;93861.06;;;13.90;100.00
38400;BME280;24180;42.676;23.320;2023-04-26T09:57:56;93876.50;;;14.34;98.35
38400;BME280;24180;42.676;23.320;2023-04-26T10:00:23;93873.28;;;14.32;99.27
38400;BME280;24180;42.676;23.320;2023-04-26T10:02:51;93847.38;;;14.45;99.33
38400;BME280;24180;42.676;23.320;2023-04-26T10:05:17;93873.09;;;14.82;95.36
38400;BME280;24180;42.676;23.320;2023-04-26T10:07:43;93866.66;;;15.13;89.30
38400;BME280;24180;42.676;23.320;2023-04-26T10:10:10;93861.25;;;15.14;86.92
38400;BME280;24180;42.676;23.320;2023-04-26T10:12:36;93875.47;;;16.00;78.19
38400;BME280;24180;42.676;23.320;2023-04-26T10:15:02;93848.41;;;15.54;80.33
38400;BME280;24180;42.676;23.320;2023-04-26T10:17:28;93867.72;;;14.90;81.74
38400;BME280;24180;42.676;23.320;2023-04-26T10:19:56;93866.91;;;14.83;84.61
38400;BME280;24180;42.676;23.320;2023-04-26T10:22:26;93863.00;;;14.45;85.92
38400;BME280;24180;42.676;23.320;2023-04-26T10:24:53;93858.00;;;14.43;86.97
38400;BME280;24180;42.676;23.320;2023-04-26T10:30:09;93869.66;;;14.33;89.34
38400;BME280;24180;42.676;23.320;2023-04-26T10:35:20;93826.69;;;14.16;86.34
38400;BME280;24180;42.676;23.320;2023-04-26T10:40:29;93859.06;;;15.18;77.36
38400;BME280;24180;42.676;23.320;2023-04-26T10:45:33;93841.91;;;14.19;81.33
38400;BME280;24180;42.676;23.320;2023-04-26T10:48:22;93857.03;;;14.08;83.99
38400;BME280;24180;42.676;23.320;2023-04-26T10:53:24;93835.56;;;15.11;73.49
38400;BME280;24180;42.676;23.320;2023-04-26T10:55:50;93837.38;;;15.11;72.93
38400;BME280;24180;42.676;23.320;2023-04-26T10:58:25;93865.38;;;14.95;74.33
38400;BME280;24180;42.676;23.320;2023-04-26T11:03:29;93853.66;;;14.85;73.38
38400;BME280;24180;42.676;23.320;2023-04-26T11:05:55;93840.47;;;15.27;73.75
38400;BME280;24180;42.676;23.320;2023-04-26T11:08:29;93835.91;;;15.49;70.17
38400;BME280;24180;42.676;23.320;2023-04-26T11:13:31;93824.13;;;14.71;74.81
38400;BME280;24180;42.676;23.320;2023-04-26T11:16:04;93830.41;;;14.83;72.53
38400;BME280;24180;42.676;23.320;2023-04-26T11:18:33;93835.63;;;14.83;69.58
38400;BME280;24180;42.676;23.320;2023-04-26T11:20:59;93858.88;;;15.60;70.55
38400;BME280;24180;42.676;23.320;2023-04-26T11:23:28;93856.34;;;15.80;68.15
38400;BME280;24180;42.676;23.320;2023-04-26T11:25:58;93841.72;;;15.99;64.76
38400;BME280;24180;42.676;23.320;2023-04-26T11:28:24;93861.41;;;16.14;63.47
38400;BME280;24180;42.676;23.320;2023-04-26T11:30:50;93855.91;;;15.29;64.14
38400;BME280;24180;42.676;23.320;2023-04-26T11:33:17;93874.47;;;14.78;66.15
38400;BME280;24180;42.676;23.320;2023-04-26T11:35:45;93864.44;;;14.75;69.59
38400;BME280;24180;42.676;23.320;2023-04-26T11:38:12;93864.19;;;15.05;69.01
38400;BME280;24180;42.676;23.320;2023-04-26T11:40:37;93839.44;;;14.87;65.57
38400;BME280;24180;42.676;23.320;2023-04-26T11:43:03;93867.56;;;14.92;64.44
38400;BME280;24180;42.676;23.320;2023-04-26T11:45:31;93846.06;;;14.90;65.82
38400;BME280;24180;42.676;23.320;2023-04-26T11:47:57;93868.19;;;15.00;66.08
38400;BME280;24180;42.676;23.320;2023-04-26T11:50:24;93846.09;;;14.96;68.38
38400;BME280;24180;42.676;23.320;2023-04-26T11:52:54;93857.03;;;15.13;66.24
38400;BME280;24180;42.676;23.320;2023-04-26T11:55:27;93850.75;;;16.03;63.78
38400;BME280;24180;42.676;23.320;2023-04-26T11:57:53;93850.59;;;16.37;57.41
38400;BME280;24180;42.676;23.320;2023-04-26T12:00:19;93827.25;;;16.29;55.35
38400;BME280;24180;42.676;23.320;2023-04-26T12:02:48;93828.91;;;16.17;56.14
38400;BME280;24180;42.676;23.320;2023-04-26T12:05:28;93843.31;;;16.06;58.17
38400;BME280;24180;42.676;23.320;2023-04-26T12:07:58;93844.88;;;15.81;61.88
38400;BME280;24180;42.676;23.320;2023-04-26T12:10:26;93863.50;;;15.65;61.84
38400;BME280;24180;42.676;23.320;2023-04-26T12:12:53;93842.56;;;16.91;59.61
38400;BME280;24180;42.676;23.320;2023-04-26T12:15:24;93849.91;;;17.27;55.95
38400;BME280;24180;42.676;23.320;2023-04-26T12:18:09;93847.38;;;16.15;57.58
38400;BME280;24180;42.676;23.320;2023-04-26T12:20:39;93855.75;;;15.84;60.65
38400;BME280;24180;42.676;23.320;2023-04-26T12:23:07;93825.25;;;16.05;58.20
38400;BME280;24180;42.676;23.320;2023-04-26T12:25:37;93848.13;;;15.89;59.07
38400;BME280;24180;42.676;23.320;2023-04-26T12:28:04;93841.53;;;15.46;61.39
38400;BME280;24180;42.676;23.320;2023-04-26T12:30:32;93849.03;;;15.15;64.31
38400;BME280;24180;42.676;23.320;2023-04-26T12:32:57;93821.22;;;14.94;65.25
38400;BME280;24180;42.676;23.320;2023-04-26T12:35:23;93846.75;;;15.05;64.45
38400;BME280;24180;42.676;23.320;2023-04-26T12:37:50;93820.19;;;14.88;66.48
38400;BME280;24180;42.676;23.320;2023-04-26T12:40:18;93853.25;;;15.16;66.22
38400;BME280;24180;42.676;23.320;2023-04-26T12:42:46;93856.22;;;15.13;62.25
38400;BME280;24180;42.676;23.320;2023-04-26T12:45:11;93825.94;;;14.77;63.28
38400;BME280;24180;42.676;23.320;2023-04-26T12:47:37;93829.19;;;14.79;67.75
38400;BME280;24180;42.676;23.320;2023-04-26T12:50:03;93832.53;;;15.08;67.20
38400;BME280;24180;42.676;23.320;2023-04-26T12:52:30;93834.78;;;14.76;68.89
38400;BME280;24180;42.676;23.320;2023-04-26T12:54:56;93855.91;;;14.60;69.35
38400;BME280;24180;42.676;23.320;2023-04-26T12:57:22;93857.03;;;14.51;68.36
38400;BME280;24180;42.676;23.320;2023-04-26T12:59:47;93831.16;;;14.49;65.03
38400;BME280;24180;42.676;23.320;2023-04-26T13:02:12;93855.91;;;14.60;65.36
38400;BME280;24180;42.676;23.320;2023-04-26T13:04:38;93844.88;;;14.58;64.96
38400;BME280;24180;42.676;23.320;2023-04-26T13:07:04;93824.22;;;14.07;77.01
38400;BME280;24180;42.676;23.320;2023-04-26T13:09:29;93855.06;;;14.11;80.97
38400;BME280;24180;42.676;23.320;2023-04-26T13:11:55;93856.19;;;14.01;82.43
38400;BME280;24180;42.676;23.320;2023-04-26T13:14:20;93855.63;;;14.06;81.18
38400;BME280;24180;42.676;23.320;2023-04-26T13:16:47;93846.13;;;13.98;80.71